createdAt,value
2022-07-26T00:00:43.508Z,94867.59
2022-07-26T00:03:10.490Z,94866.06
2022-07-26T00:05:38.628Z,94865.13
2022-07-26T00:08:12.956Z,94857.97
2022-07-26T00:10:42.055Z,94863.03
2022-07-26T00:13:09.104Z,94860.75
2022-07-26T00:15:36.828Z,94870.56
2022-07-26T00:18:04.895Z,94870.41
2022-07-26T00:20:34.967Z,94867.06
2022-07-26T00:23:02.542Z,94865.03
2022-07-26T00:25:29.427Z,94859.47
2022-07-26T00:27:56.779Z,94871.66
2022-07-26T00:30:24.661Z,94859.38
2022-07-26T00:32:52.780Z,94859.97
2022-07-26T00:35:20.757Z,94857.59
2022-07-26T00:37:48.064Z,94858.66
2022-07-26T00:40:15.702Z,94851.94
2022-07-26T00:42:43.427Z,94838.19
2022-07-26T00:45:11.478Z,94850.91
2022-07-26T00:47:38.558Z,94856.16
2022-07-26T00:50:07.463Z,94857.00
2022-07-26T00:52:35.265Z,94850.69
2022-07-26T00:55:02.762Z,94854.94
2022-07-26T00:57:29.515Z,94854.94
2022-07-26T01:00:01.209Z,94857.69
2022-07-26T01:02:28.175Z,94858.53
2022-07-26T01:04:55.067Z,94863.66
2022-07-26T01:07:22.733Z,94852.41
2022-07-26T01:09:49.789Z,94851.88
2022-07-26T01:12:16.623Z,94854.84
2022-07-26T01:14:44.669Z,94856.00
2022-07-26T01:17:12.493Z,94856.06
2022-07-26T01:19:39.304Z,94862.34
2022-07-26T01:22:09.914Z,94859.06
2022-07-26T01:24:39.347Z,94853.72
2022-07-26T01:27:06.308Z,94852.09
2022-07-26T01:29:34.803Z,94851.16
2022-07-26T01:32:05.004Z,94855.66
2022-07-26T01:34:32.174Z,94850.09
2022-07-26T01:36:59.019Z,94830.78
2022-07-26T01:39:25.808Z,94847.16
2022-07-26T01:41:53.335Z,94828.16
2022-07-26T01:44:20.028Z,94851.50
2022-07-26T01:46:46.693Z,94838.72
2022-07-26T01:49:13.652Z,94847.31
2022-07-26T01:51:40.536Z,94847.31
2022-07-26T01:54:07.566Z,94857.28
2022-07-26T01:56:34.706Z,94858.53
2022-07-26T01:59:01.788Z,94851.09
2022-07-26T02:01:39.696Z,94849.31
2022-07-26T02:04:08.970Z,94854.94
2022-07-26T02:06:37.231Z,94853.38
2022-07-26T02:09:05.231Z,94867.34
2022-07-26T02:11:34.498Z,94862.84
2022-07-26T02:14:03.309Z,94859.75
2022-07-26T02:16:30.102Z,94869.06
2022-07-26T02:18:57.161Z,94859.69
2022-07-26T02:21:23.877Z,94864.06
2022-07-26T02:23:50.604Z,94868.00
2022-07-26T02:26:17.307Z,94872.13
2022-07-26T02:28:44.002Z,94866.44
2022-07-26T02:31:10.768Z,94863.03
2022-07-26T02:33:38.621Z,94866.41
2022-07-26T02:36:05.566Z,94866.34
2022-07-26T02:38:32.343Z,94871.91
2022-07-26T02:40:59.024Z,94860.16
2022-07-26T02:43:26.965Z,94872.69
2022-07-26T02:46:01.866Z,94874.13
2022-07-26T02:48:30.924Z,94867.81
2022-07-26T02:50:57.880Z,94869.75
2022-07-26T02:53:24.689Z,94872.97
2022-07-26T02:55:51.668Z,94874.75
2022-07-26T02:58:21.369Z,94871.53
2022-07-26T03:00:48.257Z,94874.44
2022-07-26T03:03:15.267Z,94878.06
2022-07-26T03:05:42.330Z,94859.28
2022-07-26T03:08:09.618Z,94885.69
2022-07-26T03:10:36.488Z,94873.91
2022-07-26T03:13:03.634Z,94878.03
2022-07-26T03:15:30.703Z,94876.66
2022-07-26T03:17:57.454Z,94865.66
2022-07-26T03:20:24.816Z,94885.22
2022-07-26T03:22:51.733Z,94892.97
2022-07-26T03:25:18.489Z,94890.09
2022-07-26T03:27:45.327Z,94893.94
2022-07-26T03:30:12.711Z,94888.28
2022-07-26T03:32:39.482Z,94888.78
2022-07-26T03:35:07.747Z,94897.66
2022-07-26T03:37:45.943Z,94899.25
2022-07-26T03:40:18.039Z,94899.00
2022-07-26T03:42:46.116Z,94896.56
2022-07-26T03:45:14.473Z,94885.00
2022-07-26T03:47:42.173Z,94894.91
2022-07-26T03:50:11.063Z,94894.06
2022-07-26T03:52:38.226Z,94884.22
2022-07-26T03:55:26.027Z,94897.03
2022-07-26T03:57:53.538Z,94885.84
2022-07-26T04:00:20.467Z,94881.41
2022-07-26T04:02:47.327Z,94888.88
2022-07-26T04:05:14.196Z,94885.06
2022-07-26T04:07:52.573Z,94882.19
2022-07-26T04:10:21.905Z,94888.69
2022-07-26T04:12:49.923Z,94894.31
2022-07-26T04:15:18.916Z,94882.44
2022-07-26T04:17:48.256Z,94878.78
2022-07-26T04:20:16.142Z,94885.00
2022-07-26T04:22:42.972Z,94882.38
2022-07-26T04:25:10.210Z,94883.16
2022-07-26T04:27:38.051Z,94877.06
2022-07-26T04:30:11.071Z,94872.81
2022-07-26T04:32:42.056Z,94881.97
2022-07-26T04:35:09.556Z,94876.97
2022-07-26T04:37:43.845Z,94871.66
2022-07-26T04:40:15.296Z,94867.78
2022-07-26T04:42:43.155Z,94868.72
2022-07-26T04:45:11.088Z,94864.00
2022-07-26T04:47:37.948Z,94867.28
2022-07-26T04:50:05.224Z,94869.28
2022-07-26T04:52:32.682Z,94871.53
2022-07-26T04:55:00.732Z,94866.88
2022-07-26T04:57:27.551Z,94871.53
2022-07-26T05:00:10.102Z,94873.13
2022-07-26T05:02:42.502Z,94875.00
2022-07-26T05:05:09.624Z,94869.28
2022-07-26T05:07:43.525Z,94869.91
2022-07-26T05:10:11.680Z,94872.72
2022-07-26T05:12:38.587Z,94874.66
2022-07-26T05:15:06.432Z,94872.13
2022-07-26T05:17:41.632Z,94844.56
2022-07-26T05:20:10.204Z,94856.25
2022-07-26T05:22:37.887Z,94852.47
2022-07-26T05:25:05.910Z,94859.00
2022-07-26T05:27:32.797Z,94855.47
2022-07-26T05:29:59.708Z,94858.91
2022-07-26T05:32:28.243Z,94858.91
2022-07-26T05:34:55.121Z,94852.34
2022-07-26T05:37:21.901Z,94853.66
2022-07-26T05:39:48.566Z,94860.25
2022-07-26T05:42:15.345Z,94838.59
2022-07-26T05:44:42.414Z,94860.56
2022-07-26T05:47:10.041Z,94859.53
2022-07-26T05:49:40.412Z,94850.72
2022-07-26T05:52:08.786Z,94851.16
2022-07-26T05:54:35.911Z,94847.56
2022-07-26T05:57:03.225Z,94845.53
2022-07-26T05:59:29.953Z,94849.78
2022-07-26T06:01:56.921Z,94837.88
2022-07-26T06:04:26.626Z,94837.38
2022-07-26T06:06:55.249Z,94842.06
2022-07-26T06:09:25.354Z,94828.91
2022-07-26T06:11:52.756Z,94835.78
2022-07-26T06:14:20.487Z,94836.69
2022-07-26T06:16:47.727Z,94827.63
2022-07-26T06:19:14.824Z,94822.66
2022-07-26T06:21:42.771Z,94823.28
2022-07-26T06:24:10.077Z,94821.00
2022-07-26T06:26:37.332Z,94816.63
2022-07-26T06:29:04.104Z,94820.53
2022-07-26T06:31:30.906Z,94824.13
2022-07-26T06:33:57.806Z,94820.59
2022-07-26T06:36:29.965Z,94817.16
2022-07-26T06:38:57.473Z,94815.38
2022-07-26T06:41:24.229Z,94818.63
2022-07-26T06:43:50.915Z,94813.84
2022-07-26T06:46:19.357Z,94813.94
2022-07-26T06:48:47.563Z,94823.25
2022-07-26T06:51:19.493Z,94818.66
2022-07-26T06:53:46.159Z,94812.41
2022-07-26T06:56:14.934Z,94814.53
2022-07-26T06:58:42.518Z,94803.78
2022-07-26T07:01:09.450Z,94809.41
2022-07-26T07:03:36.493Z,94806.63
2022-07-26T07:06:03.307Z,94811.16
2022-07-26T07:08:30.159Z,94813.63
2022-07-26T07:10:57.833Z,94815.06
2022-07-26T07:13:25.170Z,94817.03
2022-07-26T07:15:52.130Z,94808.91
2022-07-26T07:18:20.405Z,94803.19
2022-07-26T07:20:47.569Z,94803.59
2022-07-26T07:23:14.252Z,94803.41
2022-07-26T07:25:40.934Z,94804.41
2022-07-26T07:28:11.551Z,94804.56
2022-07-26T07:30:38.253Z,94813.28
2022-07-26T07:33:05.127Z,94816.22
2022-07-26T07:35:32.871Z,94814.69
2022-07-26T07:37:59.760Z,94809.72
2022-07-26T07:40:30.309Z,94805.59
2022-07-26T07:42:58.309Z,94787.31
2022-07-26T07:45:25.005Z,94813.25
2022-07-26T07:47:51.802Z,94801.78
2022-07-26T07:50:18.830Z,94810.88
2022-07-26T07:52:45.514Z,94812.91
2022-07-26T07:55:36.754Z,94792.16
2022-07-26T07:57:59.018Z,94797.09
2022-07-26T08:00:33.036Z,94793.28
2022-07-26T08:02:59.861Z,94797.09
2022-07-26T08:05:26.658Z,94798.69
2022-07-26T08:07:53.378Z,94793.25
2022-07-26T08:10:21.293Z,94785.16
2022-07-26T08:12:51.406Z,94791.78
2022-07-26T08:15:19.521Z,94787.13
2022-07-26T08:17:51.071Z,94780.53
2022-07-26T08:20:21.052Z,94780.16
2022-07-26T08:22:50.873Z,94766.19
2022-07-26T08:25:18.797Z,94767.00
2022-07-26T08:28:00.528Z,94763.16
2022-07-26T08:30:30.582Z,94760.75
2022-07-26T08:32:57.232Z,94754.13
2022-07-26T08:35:24.297Z,94755.66
2022-07-26T08:37:51.055Z,94752.78
2022-07-26T08:40:18.150Z,94753.13
2022-07-26T08:42:52.938Z,94755.56
2022-07-26T08:45:24.369Z,94753.41
2022-07-26T08:48:16.053Z,94758.25
2022-07-26T08:50:39.710Z,94754.97
2022-07-26T08:53:09.266Z,94738.59
2022-07-26T08:56:04.202Z,94757.00
2022-07-26T08:58:23.151Z,94742.03
2022-07-26T09:01:06.707Z,94745.88
2022-07-26T09:03:33.768Z,94739.31
2022-07-26T09:06:15.877Z,94743.94
2022-07-26T09:08:43.707Z,94745.13
2022-07-26T09:11:30.043Z,94742.25
2022-07-26T09:14:23.109Z,94746.56
2022-07-26T09:16:58.715Z,94746.88
2022-07-26T09:19:26.793Z,94743.72
2022-07-26T09:21:55.657Z,94740.69
2022-07-26T09:24:39.175Z,94737.34
2022-07-26T09:27:07.682Z,94732.66
2022-07-26T09:29:46.649Z,94736.88
2022-07-26T09:32:25.050Z,94729.88
2022-07-26T09:34:58.794Z,94727.50
2022-07-26T09:37:40.316Z,94732.19
2022-07-26T09:40:09.852Z,94724.25
2022-07-26T09:42:36.855Z,94731.56
2022-07-26T09:45:15.965Z,94719.59
2022-07-26T09:47:42.798Z,94710.41
2022-07-26T09:50:18.292Z,94718.41
2022-07-26T09:53:12.200Z,94722.97
2022-07-26T09:55:45.279Z,94720.25
2022-07-26T09:58:17.485Z,94703.69
2022-07-26T10:00:44.639Z,94711.53
2022-07-26T10:03:12.293Z,94714.25
2022-07-26T10:05:39.937Z,94708.81
2022-07-26T10:08:07.861Z,94705.81
2022-07-26T10:10:42.491Z,94702.03
2022-07-26T10:13:10.283Z,94696.63
2022-07-26T10:15:48.515Z,94693.91
2022-07-26T10:18:42.962Z,94680.34
2022-07-26T10:21:18.668Z,94697.59
2022-07-26T10:23:50.618Z,94681.06
2022-07-26T10:26:32.718Z,94683.31
2022-07-26T10:29:26.926Z,94688.97
2022-07-26T10:31:56.413Z,94682.34
2022-07-26T10:34:40.081Z,94680.81
2022-07-26T10:37:10.493Z,94683.00
2022-07-26T10:39:38.967Z,94680.16
2022-07-26T10:42:08.678Z,94679.72
2022-07-26T10:44:39.282Z,94669.59
2022-07-26T10:47:15.520Z,94669.31
2022-07-26T10:49:58.340Z,94671.00
2022-07-26T10:52:31.124Z,94665.56
2022-07-26T10:54:58.154Z,94656.56
2022-07-26T10:57:25.718Z,94655.28
2022-07-26T10:59:56.067Z,94652.47
2022-07-26T11:02:33.967Z,94647.88
2022-07-26T11:05:01.088Z,94637.53
2022-07-26T11:07:29.926Z,94643.13
2022-07-26T11:10:00.817Z,94638.94
2022-07-26T11:12:27.780Z,94624.41
2022-07-26T11:14:54.450Z,94632.16
2022-07-26T11:17:27.339Z,94628.59
2022-07-26T11:19:54.983Z,94623.88
2022-07-26T11:22:22.184Z,94626.56
2022-07-26T11:24:49.008Z,94611.78
2022-07-26T11:27:15.862Z,94611.72
2022-07-26T11:29:42.600Z,94611.81
2022-07-26T11:32:22.265Z,94599.19
2022-07-26T11:35:00.025Z,94601.25
2022-07-26T11:37:26.915Z,94606.84
2022-07-26T11:39:54.438Z,94595.00
2022-07-26T11:42:22.004Z,94595.63
2022-07-26T11:44:49.896Z,94597.03
2022-07-26T11:47:25.269Z,94594.41
2022-07-26T11:52:40.691Z,94581.47
2022-07-26T11:55:08.244Z,94588.78
2022-07-26T11:57:34.991Z,94583.78
2022-07-26T12:00:02.239Z,94575.69
2022-07-26T12:02:38.409Z,94572.97
2022-07-26T12:05:18.351Z,94557.31
2022-07-26T12:07:59.973Z,94576.41
2022-07-26T12:10:27.820Z,94564.78
2022-07-26T12:13:07.601Z,94573.91
2022-07-26T12:15:49.259Z,94566.50
2022-07-26T12:18:27.106Z,94559.34
2022-07-26T12:21:00.644Z,94556.16
2022-07-26T12:23:45.810Z,94552.53
2022-07-26T12:26:24.351Z,94569.34
2022-07-26T12:28:51.286Z,94555.56
2022-07-26T12:31:24.168Z,94555.16
2022-07-26T12:33:51.170Z,94551.22
2022-07-26T12:36:27.992Z,94550.28
2022-07-26T12:39:00.880Z,94552.25
2022-07-26T12:41:35.081Z,94552.75
2022-07-26T12:44:01.906Z,94548.41
2022-07-26T12:46:32.617Z,94543.72
2022-07-26T12:49:00.648Z,94549.78
2022-07-26T12:51:27.755Z,94554.13
2022-07-26T12:53:54.711Z,94545.00
2022-07-26T12:56:21.422Z,94536.94
2022-07-26T12:58:48.173Z,94542.53
2022-07-26T13:01:15.108Z,94543.19
2022-07-26T13:03:41.977Z,94529.41
2022-07-26T13:06:08.684Z,94543.88
2022-07-26T13:08:35.540Z,94531.31
2022-07-26T13:11:02.395Z,94537.81
2022-07-26T13:13:29.644Z,94533.38
2022-07-26T13:15:56.320Z,94530.50
2022-07-26T13:18:23.016Z,94528.59
2022-07-26T13:20:49.709Z,94527.69
2022-07-26T13:23:21.372Z,94525.44
2022-07-26T13:25:48.532Z,94523.06
2022-07-26T13:28:17.300Z,94516.03
2022-07-26T13:30:45.074Z,94517.34
2022-07-26T13:33:12.493Z,94529.56
2022-07-26T13:35:41.041Z,94530.84
2022-07-26T13:38:08.838Z,94522.56
2022-07-26T13:40:36.094Z,94528.28
2022-07-26T13:43:03.062Z,94519.50
2022-07-26T13:45:29.932Z,94522.28
2022-07-26T13:47:59.098Z,94514.31
2022-07-26T13:50:27.561Z,94513.78
2022-07-26T13:52:56.809Z,94513.00
2022-07-26T13:55:24.308Z,94514.25
2022-07-26T13:57:56.758Z,94513.81
2022-07-26T14:00:28.866Z,94521.41
2022-07-26T14:02:57.474Z,94515.03
2022-07-26T14:05:25.042Z,94498.53
2022-07-26T14:07:51.977Z,94506.13
2022-07-26T14:10:19.280Z,94499.03
2022-07-26T14:12:46.008Z,94498.19
2022-07-26T14:15:18.090Z,94500.22
2022-07-26T14:17:48.099Z,94504.44
2022-07-26T14:20:17.156Z,94502.63
2022-07-26T14:22:44.612Z,94485.66
2022-07-26T14:25:11.825Z,94492.56
2022-07-26T14:27:39.223Z,94497.50
2022-07-26T14:30:06.619Z,94475.22
2022-07-26T14:32:33.469Z,94481.34
2022-07-26T14:35:00.140Z,94484.72
2022-07-26T14:37:42.728Z,94481.22
2022-07-26T14:40:16.694Z,94465.53
2022-07-26T14:42:44.885Z,94485.97
2022-07-26T14:45:12.749Z,94485.69
2022-07-26T14:47:39.654Z,94476.22
2022-07-26T14:50:08.454Z,94474.94
2022-07-26T14:52:40.577Z,94484.13
2022-07-26T14:55:08.277Z,94482.66
2022-07-26T14:57:39.531Z,94477.94
2022-07-26T15:00:10.287Z,94476.50
2022-07-26T15:02:42.539Z,94475.19
2022-07-26T15:05:10.735Z,94467.59
2022-07-26T15:07:39.126Z,94460.63
2022-07-26T15:10:08.547Z,94467.78
2022-07-26T15:12:37.505Z,94464.25
2022-07-26T15:15:06.073Z,94460.00
2022-07-26T15:17:33.287Z,94456.16
2022-07-26T15:20:00.253Z,94454.72
2022-07-26T15:22:27.117Z,94458.06
2022-07-26T15:24:53.827Z,94451.59
2022-07-26T15:27:21.327Z,94455.06
2022-07-26T15:29:52.238Z,94459.78
2022-07-26T15:32:23.842Z,94445.44
2022-07-26T15:34:50.739Z,94458.09
2022-07-26T15:37:18.872Z,94459.34
2022-07-26T15:39:45.594Z,94454.75
2022-07-26T15:42:12.379Z,94450.41
2022-07-26T15:44:45.212Z,94451.44
2022-07-26T15:47:15.333Z,94457.03
2022-07-26T15:49:57.713Z,94453.84
2022-07-26T15:52:24.442Z,94441.06
2022-07-26T15:54:52.813Z,94447.50
2022-07-26T15:57:19.559Z,94445.06
2022-07-26T15:59:46.395Z,94452.44
2022-07-26T16:02:13.822Z,94431.41
2022-07-26T16:04:40.708Z,94444.91
2022-07-26T16:07:07.511Z,94451.28
2022-07-26T16:09:34.373Z,94449.50
2022-07-26T16:12:05.792Z,94445.78
2022-07-26T16:14:33.017Z,94448.75
2022-07-26T16:17:00.045Z,94451.91
2022-07-26T16:19:27.293Z,94444.16
2022-07-26T16:21:54.546Z,94443.91
2022-07-26T16:24:21.281Z,94443.47
2022-07-26T16:26:48.107Z,94444.91
2022-07-26T16:29:15.429Z,94461.34
2022-07-26T16:31:42.870Z,94457.91
2022-07-26T16:34:11.387Z,94456.66
2022-07-26T16:36:38.351Z,94453.75
2022-07-26T16:39:05.462Z,94454.94
2022-07-26T16:41:32.371Z,94456.41
2022-07-26T16:43:59.155Z,94455.41
2022-07-26T16:46:27.095Z,94456.72
2022-07-26T16:48:53.914Z,94462.72
2022-07-26T16:51:20.705Z,94465.47
2022-07-26T16:53:51.303Z,94469.19
2022-07-26T16:56:18.655Z,94465.34
2022-07-26T16:58:46.593Z,94476.81
2022-07-26T17:01:13.480Z,94469.19
2022-07-26T17:03:40.436Z,94468.50
2022-07-26T17:06:07.774Z,94474.16
2022-07-26T17:08:35.084Z,94465.53
2022-07-26T17:11:02.890Z,94470.66
2022-07-26T17:13:30.424Z,94468.16
2022-07-26T17:15:57.377Z,94467.44
2022-07-26T17:18:24.353Z,94471.16
2022-07-26T17:20:51.070Z,94478.91
2022-07-26T17:23:18.566Z,94481.53
2022-07-26T17:25:45.762Z,94483.66
2022-07-26T17:28:13.553Z,94480.78
2022-07-26T17:30:41.351Z,94475.44
2022-07-26T17:33:08.160Z,94471.25
2022-07-26T17:35:34.921Z,94473.84
2022-07-26T17:38:01.939Z,94479.91
2022-07-26T17:40:31.649Z,94471.59
2022-07-26T17:42:59.104Z,94472.44
2022-07-26T17:45:26.285Z,94477.28
2022-07-26T17:47:53.049Z,94478.75
2022-07-26T17:50:36.096Z,94475.66
2022-07-26T17:53:04.481Z,94465.16
2022-07-26T17:55:31.513Z,94475.13
2022-07-26T17:58:01.369Z,94478.81
2022-07-26T18:00:28.986Z,94475.91
2022-07-26T18:02:57.342Z,94494.38
2022-07-26T18:05:30.189Z,94502.66
2022-07-26T18:08:00.513Z,94504.50
2022-07-26T18:10:28.200Z,94502.38
2022-07-26T18:12:55.611Z,94486.94
2022-07-26T18:15:22.418Z,94510.66
2022-07-26T18:17:49.308Z,94509.44
2022-07-26T18:20:16.183Z,94501.78
2022-07-26T18:22:45.732Z,94512.84
2022-07-26T18:25:17.312Z,94523.78
2022-07-26T18:27:44.280Z,94524.19
2022-07-26T18:30:11.293Z,94528.50
2022-07-26T18:32:38.105Z,94526.31
2022-07-26T18:35:06.040Z,94526.91
2022-07-26T18:37:33.098Z,94538.59
2022-07-26T18:40:00.055Z,94544.50
2022-07-26T18:42:27.035Z,94541.94
2022-07-26T18:44:56.013Z,94548.69
2022-07-26T18:47:24.068Z,94542.56
2022-07-26T18:49:56.561Z,94542.53
2022-07-26T18:52:28.289Z,94542.91
2022-07-26T18:55:02.953Z,94561.56
2022-07-26T18:57:29.948Z,94552.13
2022-07-26T18:59:56.732Z,94553.28
2022-07-26T19:02:23.547Z,94561.50
2022-07-26T19:04:50.380Z,94544.38
2022-07-26T19:07:19.688Z,94557.06
2022-07-26T19:09:46.490Z,94556.47
2022-07-26T19:12:13.207Z,94561.25
2022-07-26T19:14:39.982Z,94565.72
2022-07-26T19:17:09.900Z,94560.72
2022-07-26T19:19:38.068Z,94565.53
2022-07-26T19:22:05.314Z,94564.84
2022-07-26T19:24:41.395Z,94566.97
2022-07-26T19:27:09.452Z,94560.97
2022-07-26T19:29:37.685Z,94558.69
2022-07-26T19:32:05.296Z,94562.22
2022-07-26T19:34:32.177Z,94558.03
2022-07-26T19:36:58.896Z,94551.47
2022-07-26T19:39:26.021Z,94555.34
2022-07-26T19:41:53.159Z,94557.25
2022-07-26T19:44:20.257Z,94556.63
2022-07-26T19:46:47.615Z,94558.16
2022-07-26T19:49:16.973Z,94562.50
2022-07-26T19:51:44.189Z,94555.94
2022-07-26T19:54:11.714Z,94561.44
2022-07-26T19:56:40.017Z,94561.31
2022-07-26T19:59:06.736Z,94555.84
2022-07-26T20:01:33.629Z,94557.41
2022-07-26T20:04:02.315Z,94554.19
2022-07-26T20:06:29.175Z,94560.28
2022-07-26T20:08:55.927Z,94560.63
2022-07-26T20:11:24.869Z,94554.28
2022-07-26T20:13:51.724Z,94556.59
2022-07-26T20:16:18.596Z,94562.78
2022-07-26T20:18:45.377Z,94559.75
2022-07-26T20:21:12.294Z,94545.97
2022-07-26T20:23:39.053Z,94559.22
2022-07-26T20:26:06.091Z,94558.72
2022-07-26T20:28:33.016Z,94563.59
2022-07-26T20:31:00.168Z,94558.06
2022-07-26T20:33:27.144Z,94559.47
2022-07-26T20:35:55.203Z,94543.81
2022-07-26T20:38:22.591Z,94556.50
2022-07-26T20:40:49.738Z,94559.19
2022-07-26T20:43:17.286Z,94562.66
2022-07-26T20:45:44.577Z,94564.59
2022-07-26T20:48:11.389Z,94563.09
2022-07-26T20:50:38.399Z,94564.66
2022-07-26T20:53:05.349Z,94577.16
2022-07-26T20:55:32.204Z,94579.63
2022-07-26T20:57:59.173Z,94582.66
2022-07-26T21:00:26.527Z,94587.34
2022-07-26T21:02:58.015Z,94591.34
2022-07-26T21:05:29.714Z,94592.94
2022-07-26T21:07:59.757Z,94587.06
2022-07-26T21:10:29.076Z,94592.81
2022-07-26T21:12:57.519Z,94596.94
2022-07-26T21:15:24.398Z,94605.41
2022-07-26T21:17:52.527Z,94605.41
2022-07-26T21:20:19.991Z,94596.88
2022-07-26T21:22:46.811Z,94602.25
2022-07-26T21:25:13.793Z,94598.50
2022-07-26T21:27:40.517Z,94611.59
2022-07-26T21:30:08.274Z,94606.19
2022-07-26T21:32:35.138Z,94610.09
2022-07-26T21:35:02.073Z,94611.72
2022-07-26T21:37:28.882Z,94610.91
2022-07-26T21:39:55.641Z,94609.00
2022-07-26T21:42:27.542Z,94622.50
2022-07-26T21:44:54.217Z,94611.66
2022-07-26T21:47:21.002Z,94610.88
2022-07-26T21:49:47.707Z,94617.09
2022-07-26T21:52:14.546Z,94600.91
2022-07-26T21:54:41.298Z,94606.69
2022-07-26T21:57:08.115Z,94604.75
2022-07-26T21:59:34.977Z,94599.72
2022-07-26T22:02:01.791Z,94607.81
2022-07-26T22:04:29.030Z,94601.28
2022-07-26T22:06:55.734Z,94592.41
2022-07-26T22:09:22.444Z,94604.34
2022-07-26T22:11:49.328Z,94604.72
2022-07-26T22:14:17.460Z,94606.28
2022-07-26T22:16:44.605Z,94607.06
2022-07-26T22:19:11.767Z,94604.75
2022-07-26T22:21:39.763Z,94614.81
2022-07-26T22:24:06.864Z,94614.03
2022-07-26T22:26:33.699Z,94604.00
2022-07-26T22:29:00.430Z,94615.94
2022-07-26T22:31:27.244Z,94614.38
2022-07-26T22:33:54.099Z,94617.47
2022-07-26T22:36:21.008Z,94602.44
2022-07-26T22:38:47.928Z,94589.19
2022-07-26T22:41:14.788Z,94610.88
2022-07-26T22:43:41.958Z,94606.59
2022-07-26T22:46:08.886Z,94608.59
2022-07-26T22:48:38.418Z,94607.78
2022-07-26T22:51:05.747Z,94612.44
2022-07-26T22:53:32.511Z,94604.72
2022-07-26T22:55:59.321Z,94605.50
2022-07-26T22:58:26.126Z,94620.56
2022-07-26T23:00:54.156Z,94612.41
2022-07-26T23:03:21.724Z,94624.41
2022-07-26T23:05:49.947Z,94622.09
2022-07-26T23:08:45.817Z,94626.69
2022-07-26T23:11:05.247Z,94621.69
2022-07-26T23:13:32.169Z,94627.09
2022-07-26T23:16:01.242Z,94624.00
2022-07-26T23:18:30.011Z,94622.47
2022-07-26T23:20:57.275Z,94628.28
2022-07-26T23:23:29.705Z,94635.59
2022-07-26T23:25:57.597Z,94628.63
2022-07-26T23:28:24.899Z,94635.19
2022-07-26T23:31:06.591Z,94617.38
2022-07-26T23:33:52.058Z,94642.56
2022-07-26T23:36:20.100Z,94646.81
2022-07-26T23:38:46.784Z,94633.28
2022-07-26T23:41:13.541Z,94634.06
2022-07-26T23:43:40.244Z,94640.22
2022-07-26T23:46:07.039Z,94639.38
2022-07-26T23:48:33.894Z,94641.41
2022-07-26T23:51:00.651Z,94650.84
2022-07-26T23:53:27.482Z,94636.16
2022-07-26T23:55:54.705Z,94638.81
2022-07-26T23:58:21.840Z,94641.88
